Time;durP1;ratioP1;P1;durP2;ratioP2;P2;SDS_P1;SDS_P2;PMS_P1;PMS_P2;Temp;Humidity;BMP_temperature;BMP_pressure;BME280_temperature;BME280_humidity;BME280_pressure;Samples;Min_cycle;Max_cycle;Signal;HPM_P1;HPM_P2
2020/12/29 00:00:10;;;;;;;14.52;5.20;;;1.40;99.90;;;;;;4990773;28;20073;-63
2020/12/29 00:02:36;;;;;;;12.63;5.25;;;1.50;99.90;;;;;;4990518;28;20054;-64
2020/12/29 00:05:01;;;;;;;6.43;4.47;;;1.50;99.90;;;;;;4990265;28;20029;-64
2020/12/29 00:07:27;;;;;;;9.25;4.70;;;1.50;99.90;;;;;;4992074;28;20109;-64
2020/12/29 00:09:53;;;;;;;9.63;4.70;;;1.50;99.90;;;;;;4990862;28;20374;-62
2020/12/29 00:12:18;;;;;;;6.38;4.30;;;1.60;99.90;;;;;;5007662;28;20045;-64
2020/12/29 00:14:44;;;;;;;7.03;3.85;;;1.60;99.90;;;;;;5009987;28;20037;-64
2020/12/29 00:17:09;;;;;;;11.05;4.53;;;1.70;99.90;;;;;;4994780;28;20046;-63
2020/12/29 00:19:35;;;;;;;6.38;3.60;;;1.70;99.90;;;;;;4990068;28;20450;-62
2020/12/29 00:22:00;;;;;;;6.47;4.07;;;1.80;99.90;;;;;;4990323;28;20061;-62
2020/12/29 00:24:26;;;;;;;6.75;4.10;;;1.80;99.90;;;;;;4990213;28;20037;-63
2020/12/29 00:26:51;;;;;;;6.63;3.70;;;1.80;99.90;;;;;;5004040;28;20034;-64
2020/12/29 00:29:17;;;;;;;7.47;3.88;;;1.90;99.90;;;;;;5008223;28;20079;-63
2020/12/29 00:31:43;;;;;;;8.25;3.88;;;1.90;99.90;;;;;;5009702;28;20032;-64
2020/12/29 00:34:08;;;;;;;9.85;4.13;;;2.00;99.90;;;;;;5009846;28;20030;-63
2020/12/29 00:36:34;;;;;;;8.00;4.38;;;2.00;99.90;;;;;;4998509;28;20157;-63
2020/12/29 00:38:59;;;;;;;6.47;4.00;;;2.10;99.90;;;;;;4990133;28;20030;-64
2020/12/29 00:41:25;;;;;;;10.07;3.88;;;2.10;99.90;;;;;;5000111;28;20044;-63
2020/12/29 00:43:51;;;;;;;8.52;4.53;;;2.20;99.90;;;;;;5008007;28;20045;-63
2020/12/29 00:46:21;;;;;;;7.25;4.03;;;2.20;99.90;;;;;;5000478;28;20069;-63
2020/12/29 00:48:48;;;;;;;7.50;3.92;;;2.20;99.90;;;;;;4990849;28;20042;-64
2020/12/29 00:51:19;;;;;;;6.63;3.47;;;2.30;99.90;;;;;;4991373;28;20140;-63
2020/12/29 00:53:45;;;;;;;6.38;3.95;;;2.30;99.90;;;;;;4990735;28;20022;-63
2020/12/29 00:56:12;;;;;;;7.22;3.20;;;2.30;99.90;;;;;;4997615;28;20045;-64
2020/12/29 00:58:38;;;;;;;8.50;4.10;;;2.30;99.90;;;;;;5009483;28;20041;-64
2020/12/29 01:01:05;;;;;;;4.65;3.60;;;2.40;99.90;;;;;;5009355;28;20088;-62
2020/12/29 01:03:31;;;;;;;5.95;3.65;;;2.50;99.90;;;;;;5009068;28;20029;-64
2020/12/29 01:05:57;;;;;;;7.93;4.20;;;2.50;99.90;;;;;;5002526;28;20513;-63
2020/12/29 01:08:23;;;;;;;6.90;4.30;;;2.50;99.90;;;;;;4989580;28;20027;-62
2020/12/29 01:10:57;;;;;;;6.05;3.95;;;2.50;99.90;;;;;;4989206;28;20031;-62
2020/12/29 01:13:23;;;;;;;5.15;3.58;;;2.50;99.90;;;;;;4989692;28;20041;-63
2020/12/29 01:15:50;;;;;;;7.03;3.60;;;2.60;99.90;;;;;;4993215;28;20057;-64
2020/12/29 01:18:16;;;;;;;7.18;3.65;;;2.60;99.90;;;;;;5009258;28;20104;-64
2020/12/29 01:20:41;;;;;;;6.75;4.05;;;2.60;99.90;;;;;;5009137;28;20437;-61
2020/12/29 01:23:07;;;;;;;4.93;2.97;;;2.70;99.90;;;;;;5009167;28;20038;-64
2020/12/29 01:25:33;;;;;;;4.70;2.80;;;2.70;99.90;;;;;;5005715;28;20034;-64
2020/12/29 01:27:58;;;;;;;7.15;3.55;;;2.70;99.90;;;;;;4989574;28;20349;-64
2020/12/29 01:30:24;;;;;;;5.38;3.47;;;2.70;99.90;;;;;;4989253;28;20030;-63
2020/12/29 01:32:50;;;;;;;8.20;3.83;;;2.80;99.90;;;;;;4989187;28;20113;-62
2020/12/29 01:35:15;;;;;;;7.20;3.88;;;2.80;99.90;;;;;;5003697;28;20038;-62
2020/12/29 01:37:42;;;;;;;4.65;2.88;;;2.90;99.90;;;;;;4989787;28;20037;-64
2020/12/29 01:40:09;;;;;;;4.80;3.33;;;2.90;99.90;;;;;;5005474;28;20060;-62
2020/12/29 01:42:35;;;;;;;7.38;3.78;;;2.90;99.90;;;;;;5008825;28;20026;-62
2020/12/29 01:45:06;;;;;;;5.22;3.58;;;3.00;99.90;;;;;;5009102;28;20030;-64
2020/12/29 01:47:33;;;;;;;8.40;4.05;;;3.00;99.90;;;;;;4989868;28;20485;-62
2020/12/29 01:49:59;;;;;;;9.90;3.88;;;3.00;99.90;;;;;;4988738;28;20030;-64
2020/12/29 01:52:24;;;;;;;9.82;3.55;;;3.00;99.90;;;;;;4992357;28;20092;-61
2020/12/29 01:54:51;;;;;;;8.48;3.78;;;3.10;99.90;;;;;;4993114;28;20436;-64
2020/12/29 01:57:17;;;;;;;7.75;3.45;;;3.10;99.90;;;;;;5010233;28;20029;-64
2020/12/29 01:59:42;;;;;;;5.88;3.15;;;3.10;99.90;;;;;;5012242;28;20485;-62
2020/12/29 02:02:08;;;;;;;6.97;4.00;;;3.10;99.90;;;;;;5012940;28;20029;-64
2020/12/29 02:04:34;;;;;;;7.93;4.10;;;3.10;99.90;;;;;;5012602;28;20036;-64
2020/12/29 02:07:00;;;;;;;8.82;3.60;;;3.10;99.90;;;;;;4998124;28;20038;-63
2020/12/29 02:09:25;;;;;;;6.95;3.78;;;3.10;99.90;;;;;;5002411;28;20037;-63
2020/12/29 02:11:51;;;;;;;6.57;3.38;;;3.00;99.90;;;;;;5012425;28;20026;-64
2020/12/29 02:14:17;;;;;;;10.63;3.72;;;3.00;99.90;;;;;;5012227;28;20038;-63
2020/12/29 02:16:43;;;;;;;5.07;3.45;;;3.00;99.90;;;;;;5000094;28;20035;-63
2020/12/29 02:19:10;;;;;;;7.05;3.65;;;2.90;99.90;;;;;;4992704;28;20041;-63
2020/12/29 02:21:38;;;;;;;9.23;3.92;;;2.80;99.90;;;;;;4992363;28;20105;-63
2020/12/29 02:24:05;;;;;;;8.57;4.32;;;2.70;99.90;;;;;;4992314;28;20022;-63
2020/12/29 02:26:33;;;;;;;8.82;4.53;;;2.70;99.90;;;;;;5003389;28;20116;-64
2020/12/29 02:29:03;;;;;;;8.93;4.38;;;2.60;99.90;;;;;;5010498;28;20037;-62
2020/12/29 02:31:29;;;;;;;10.55;4.38;;;2.60;99.90;;;;;;5012507;28;20025;-62
2020/12/29 02:33:55;;;;;;;11.07;5.10;;;2.60;99.90;;;;;;5011623;28;20213;-63
2020/12/29 02:36:20;;;;;;;12.43;4.88;;;2.60;99.90;;;;;;5002896;28;20490;-62
2020/12/29 02:38:46;;;;;;;7.15;3.83;;;2.60;99.90;;;;;;4992083;28;20041;-61
2020/12/29 02:41:13;;;;;;;7.55;4.50;;;2.70;99.90;;;;;;5000108;28;20053;-63
2020/12/29 02:43:38;;;;;;;7.38;4.03;;;2.70;99.90;;;;;;5011803;28;20500;-62
2020/12/29 02:46:05;;;;;;;6.22;3.88;;;2.80;99.90;;;;;;5004550;28;20069;-63
2020/12/29 02:48:30;;;;;;;9.68;4.30;;;2.70;99.90;;;;;;4994521;28;20448;-63
2020/12/29 02:50:56;;;;;;;8.73;4.50;;;2.80;99.90;;;;;;5011641;28;20018;-63
2020/12/29 02:53:22;;;;;;;8.57;4.05;;;2.70;99.90;;;;;;5011604;28;20026;-64
2020/12/29 02:55:47;;;;;;;6.10;3.80;;;2.70;99.90;;;;;;5006418;28;20501;-63
2020/12/29 02:58:13;;;;;;;11.88;4.60;;;2.70;99.90;;;;;;4992567;28;20106;-62
2020/12/29 03:00:38;;;;;;;6.22;4.72;;;2.70;99.90;;;;;;4992011;28;20031;-62
2020/12/29 03:03:04;;;;;;;9.10;4.78;;;2.60;99.90;;;;;;4991005;28;20332;-62
2020/12/29 03:05:29;;;;;;;8.35;4.57;;;2.50;99.90;;;;;;4994156;28;20030;-62
2020/12/29 03:07:55;;;;;;;8.25;4.40;;;2.50;99.90;;;;;;5011575;28;20030;-63
2020/12/29 03:10:22;;;;;;;8.82;4.90;;;2.40;99.90;;;;;;4993368;28;20130;-62
2020/12/29 03:12:47;;;;;;;6.78;4.55;;;2.40;99.90;;;;;;4991667;28;20363;-63
2020/12/29 03:15:13;;;;;;;12.95;4.88;;;2.40;99.90;;;;;;4991667;28;20034;-63
2020/12/29 03:17:38;;;;;;;7.15;4.45;;;2.40;99.90;;;;;;4991648;28;20037;-63
2020/12/29 03:20:05;;;;;;;7.10;4.78;;;2.30;99.90;;;;;;5005889;28;20041;-62
2020/12/29 03:22:32;;;;;;;11.68;5.32;;;2.20;99.90;;;;;;5010953;28;20044;-62
2020/12/29 03:24:58;;;;;;;6.05;4.47;;;2.10;99.90;;;;;;5011339;28;20064;-63
2020/12/29 03:27:23;;;;;;;8.63;5.05;;;2.00;99.90;;;;;;4993136;28;20038;-61
2020/12/29 03:29:49;;;;;;;6.78;4.65;;;2.00;99.90;;;;;;4992060;28;20030;-62
2020/12/29 03:32:15;;;;;;;11.57;4.72;;;2.00;99.90;;;;;;4991739;28;20026;-63
2020/12/29 03:34:40;;;;;;;7.35;4.72;;;2.00;99.90;;;;;;4991237;28;20046;-64
2020/12/29 03:37:07;;;;;;;13.93;4.90;;;1.90;99.90;;;;;;5006573;28;20129;-63
2020/12/29 03:39:33;;;;;;;11.95;5.15;;;1.90;99.90;;;;;;5010725;28;20030;-62
2020/12/29 03:41:59;;;;;;;12.20;5.15;;;1.80;99.90;;;;;;5006767;28;20113;-63
2020/12/29 03:44:25;;;;;;;10.50;5.47;;;1.80;99.90;;;;;;5010163;28;20117;-63
2020/12/29 03:46:50;;;;;;;8.55;5.53;;;1.90;99.90;;;;;;4997765;28;20320;-63
2020/12/29 03:49:17;;;;;;;9.18;5.25;;;1.90;99.90;;;;;;4991269;28;20076;-63
2020/12/29 03:51:42;;;;;;;10.43;4.55;;;1.90;99.90;;;;;;4990613;28;20038;-62
2020/12/29 03:54:08;;;;;;;7.47;4.55;;;1.90;99.90;;;;;;4990654;28;20027;-63
2020/12/29 03:56:34;;;;;;;8.52;4.43;;;1.80;99.90;;;;;;5001809;28;20571;-63
2020/12/29 03:58:59;;;;;;;9.85;5.63;;;1.80;99.90;;;;;;5010827;28;20026;-64
2020/12/29 04:01:24;;;;;;;11.23;5.20;;;1.70;99.90;;;;;;5010230;28;20034;-62
2020/12/29 04:03:50;;;;;;;8.43;5.60;;;1.70;99.90;;;;;;5010424;28;20026;-62
2020/12/29 04:06:16;;;;;;;9.95;4.72;;;1.80;99.90;;;;;;5003053;28;20287;-64
2020/12/29 04:08:41;;;;;;;13.00;5.88;;;1.80;99.90;;;;;;4990806;28;20133;-64
2020/12/29 04:11:07;;;;;;;12.57;6.05;;;1.80;99.90;;;;;;4990744;28;20476;-63
2020/12/29 04:13:33;;;;;;;13.35;6.68;;;1.90;99.90;;;;;;4990140;28;20485;-64
2020/12/29 04:15:59;;;;;;;12.60;7.40;;;1.90;99.90;;;;;;4993818;28;20137;-64
2020/12/29 04:18:24;;;;;;;14.23;6.47;;;2.00;99.90;;;;;;5009588;28;20113;-63
2020/12/29 04:20:50;;;;;;;12.00;6.38;;;1.90;99.90;;;;;;5010328;28;20073;-62
2020/12/29 04:23:15;;;;;;;13.10;6.85;;;2.00;99.90;;;;;;5009676;28;20030;-64
2020/12/29 04:25:41;;;;;;;11.10;6.65;;;2.00;99.90;;;;;;5006170;28;20094;-62
2020/12/29 04:28:06;;;;;;;12.18;6.45;;;2.00;99.90;;;;;;4990261;28;20034;-64
2020/12/29 04:30:32;;;;;;;13.30;6.60;;;2.00;99.90;;;;;;4990736;28;20030;-62
2020/12/29 04:32:57;;;;;;;14.93;6.90;;;2.00;99.90;;;;;;4990561;28;20409;-62
2020/12/29 04:35:23;;;;;;;11.20;7.05;;;2.00;99.90;;;;;;4991586;28;20084;-62
2020/12/29 04:37:48;;;;;;;11.60;6.68;;;2.10;99.90;;;;;;5010201;28;20047;-61
2020/12/29 04:40:14;;;;;;;15.68;6.80;;;2.00;99.90;;;;;;5009101;28;20136;-62
2020/12/29 04:42:41;;;;;;;14.30;7.15;;;2.00;99.90;;;;;;4989904;28;20408;-62
2020/12/29 04:45:07;;;;;;;13.05;6.90;;;2.00;99.90;;;;;;4990557;28;20026;-62
2020/12/29 04:47:33;;;;;;;11.20;7.00;;;2.00;99.90;;;;;;5008636;28;20032;-61
2020/12/29 04:49:59;;;;;;;18.63;8.35;;;1.90;99.90;;;;;;5009971;28;20057;-61
2020/12/29 04:52:26;;;;;;;16.25;7.35;;;2.00;99.90;;;;;;5010269;28;20096;-61
2020/12/29 04:54:53;;;;;;;15.40;7.47;;;2.00;99.90;;;;;;5009789;28;20072;-63
2020/12/29 04:57:20;;;;;;;14.75;7.90;;;2.00;99.90;;;;;;4992621;28;20050;-63
2020/12/29 04:59:46;;;;;;;16.50;7.10;;;2.10;99.90;;;;;;4989849;28;20435;-63
2020/12/29 05:02:12;;;;;;;16.25;8.07;;;2.10;99.90;;;;;;4989569;28;20038;-63
2020/12/29 05:04:37;;;;;;;15.38;8.10;;;2.10;99.90;;;;;;4989985;28;20022;-63
2020/12/29 05:07:03;;;;;;;13.27;7.47;;;2.10;99.90;;;;;;5004182;28;20054;-63
2020/12/29 05:09:29;;;;;;;13.15;7.50;;;2.10;99.90;;;;;;4999314;28;20030;-62
2020/12/29 05:11:55;;;;;;;17.13;8.77;;;2.20;99.90;;;;;;4989422;28;20053;-63
2020/12/29 05:14:22;;;;;;;15.93;9.02;;;2.20;99.90;;;;;;4989556;28;20435;-62
2020/12/29 05:16:50;;;;;;;16.77;7.95;;;2.20;99.90;;;;;;5002108;28;20125;-62
2020/12/29 05:19:19;;;;;;;18.13;8.30;;;2.30;99.90;;;;;;5008584;28;20096;-62
2020/12/29 05:21:45;;;;;;;12.13;7.70;;;2.30;99.90;;;;;;5008686;28;20038;-63
2020/12/29 05:24:24;;;;;;;16.38;8.75;;;2.30;99.90;;;;;;5008959;28;20033;-63
2020/12/29 05:26:54;;;;;;;12.50;7.93;;;2.30;99.90;;;;;;4995013;28;20117;-63
2020/12/29 05:29:22;;;;;;;23.42;8.00;;;2.20;99.90;;;;;;4989507;28;20026;-64
2020/12/29 05:31:48;;;;;;;16.55;8.05;;;2.20;99.90;;;;;;4988872;28;20030;-64
2020/12/29 05:34:20;;;;;;;24.85;8.65;;;2.20;99.90;;;;;;4988575;28;20081;-62
2020/12/29 05:36:46;;;;;;;19.60;8.55;;;2.20;99.90;;;;;;5002950;28;20405;-64
2020/12/29 05:39:13;;;;;;;21.52;9.05;;;2.20;99.90;;;;;;5008441;28;20520;-61
2020/12/29 05:41:50;;;;;;;21.63;8.65;;;2.20;99.90;;;;;;4996939;28;20042;-61
2020/12/29 05:44:34;;;;;;;20.20;9.25;;;2.20;99.90;;;;;;4989179;28;20106;-63
2020/12/29 05:47:02;;;;;;;23.15;9.27;;;2.20;99.90;;;;;;5002989;28;20551;-61
2020/12/29 05:49:31;;;;;;;19.70;9.07;;;2.10;99.90;;;;;;5008732;28;20030;-61
2020/12/29 05:51:56;;;;;;;20.95;9.93;;;2.10;99.90;;;;;;5008710;28;20054;-64
2020/12/29 05:54:24;;;;;;;18.77;8.98;;;2.10;99.90;;;;;;5008683;28;20069;-62
2020/12/29 05:56:54;;;;;;;20.55;8.32;;;2.10;99.90;;;;;;4995730;28;20113;-64
2020/12/29 05:59:21;;;;;;;14.55;8.70;;;2.10;99.90;;;;;;4989232;28;20069;-64
2020/12/29 06:01:49;;;;;;;18.83;7.95;;;2.10;99.90;;;;;;4989216;28;20490;-64
2020/12/29 06:04:14;;;;;;;13.40;8.02;;;2.10;99.90;;;;;;4988895;28;20436;-64
2020/12/29 06:06:42;;;;;;;12.65;6.95;;;2.10;99.90;;;;;;5000554;28;20034;-64
2020/12/29 06:09:13;;;;;;;20.13;10.18;;;2.10;99.90;;;;;;5008720;28;20026;-64
2020/12/29 06:11:42;;;;;;;18.27;9.93;;;2.10;99.90;;;;;;4996603;28;20034;-64
2020/12/29 06:14:11;;;;;;;18.42;9.90;;;2.20;99.90;;;;;;4990315;28;20027;-64
2020/12/29 06:16:39;;;;;;;19.42;10.73;;;2.20;99.90;;;;;;5001561;28;20026;-64
2020/12/29 06:19:28;;;;;;;21.40;10.00;;;2.20;99.90;;;;;;5009570;28;20031;-64
2020/12/29 06:22:02;;;;;;;15.77;10.23;;;2.20;99.90;;;;;;5008448;28;20034;-64
2020/12/29 06:24:29;;;;;;;16.88;10.23;;;2.20;99.90;;;;;;5008422;28;20026;-64
2020/12/29 06:26:58;;;;;;;14.90;9.35;;;2.10;99.90;;;;;;4994914;28;20030;-63
2020/12/29 06:29:34;;;;;;;16.63;10.82;;;2.10;99.90;;;;;;4994444;28;20089;-57
2020/12/29 06:32:05;;;;;;;12.60;8.38;;;2.10;99.90;;;;;;5008573;28;20022;-55
2020/12/29 06:34:33;;;;;;;13.85;9.30;;;2.00;99.90;;;;;;5008906;28;20038;-59
2020/12/29 06:37:24;;;;;;;17.08;9.15;;;1.90;99.90;;;;;;4996243;28;20512;-59
2020/12/29 06:40:02;;;;;;;16.30;9.82;;;1.90;99.90;;;;;;4992997;28;20042;-59
2020/12/29 06:42:28;;;;;;;19.92;10.35;;;1.80;99.90;;;;;;5010330;28;20030;-57
2020/12/29 06:44:55;;;;;;;20.38;9.93;;;1.80;99.90;;;;;;5011722;28;20029;-57
2020/12/29 06:47:24;;;;;;;17.50;9.50;;;1.80;99.90;;;;;;4994712;28;20033;-58
2020/12/29 06:49:50;;;;;;;17.58;10.38;;;1.80;99.90;;;;;;4992202;28;20023;-59
2020/12/29 06:52:17;;;;;;;17.60;9.77;;;1.80;99.90;;;;;;4992493;28;20053;-59
2020/12/29 06:54:48;;;;;;;15.80;9.73;;;1.90;99.90;;;;;;4991832;28;20096;-59
2020/12/29 06:57:13;;;;;;;16.42;9.57;;;2.00;99.90;;;;;;5008177;28;20054;-58
2020/12/29 06:59:40;;;;;;;21.60;10.05;;;2.10;99.90;;;;;;5011027;28;20523;-57
2020/12/29 07:02:17;;;;;;;13.18;8.95;;;2.20;99.90;;;;;;5011489;28;20053;-58
2020/12/29 07:04:53;;;;;;;18.27;10.50;;;2.20;99.90;;;;;;5011275;28;20030;-58
2020/12/29 07:07:53;;;;;;;20.00;8.93;;;2.20;99.90;;;;;;4994564;28;20121;-58
2020/12/29 07:10:19;;;;;;;15.35;9.60;;;2.10;99.90;;;;;;4991857;28;20113;-59
2020/12/29 07:12:47;;;;;;;19.88;9.32;;;2.20;99.90;;;;;;5007999;28;20033;-58
2020/12/29 07:15:18;;;;;;;19.80;9.10;;;2.20;99.90;;;;;;5031864;28;20032;-60
2020/12/29 07:17:57;;;;;;;21.98;10.27;;;2.10;99.90;;;;;;4991640;28;20030;-60
2020/12/29 07:20:25;;;;;;;19.38;8.60;;;2.10;99.90;;;;;;4991964;28;20057;-58
2020/12/29 07:23:01;;;;;;;18.20;8.88;;;2.10;99.90;;;;;;4992115;28;20026;-58
2020/12/29 07:25:28;;;;;;;18.23;9.82;;;2.10;99.90;;;;;;4992919;28;20033;-60
2020/12/29 07:27:57;;;;;;;18.02;9.10;;;2.20;99.90;;;;;;5010685;28;20456;-59
2020/12/29 07:30:23;;;;;;;18.70;9.23;;;2.20;99.90;;;;;;5011001;28;20531;-60
2020/12/29 07:32:49;;;;;;;20.13;9.32;;;2.10;99.90;;;;;;5010903;28;20037;-60
2020/12/29 07:35:18;;;;;;;14.63;8.88;;;2.20;99.90;;;;;;5010970;28;20117;-60
2020/12/29 07:37:45;;;;;;;14.27;8.20;;;2.20;99.90;;;;;;4991698;28;20364;-60
2020/12/29 07:40:11;;;;;;;15.98;9.10;;;2.20;99.90;;;;;;4992463;28;20503;-56
2020/12/29 07:42:36;;;;;;;15.55;8.27;;;2.20;99.90;;;;;;4991831;28;20034;-55
2020/12/29 07:45:02;;;;;;;12.80;7.63;;;2.30;99.90;;;;;;4991211;28;20026;-56
2020/12/29 07:47:28;;;;;;;11.52;7.82;;;2.30;99.90;;;;;;4991291;28;20782;-56
2020/12/29 07:49:53;;;;;;;14.25;7.45;;;2.20;99.90;;;;;;4990740;28;20053;-59
2020/12/29 07:52:23;;;;;;;11.13;6.43;;;2.20;99.90;;;;;;4991309;28;20417;-58
2020/12/29 07:55:06;;;;;;;14.70;6.20;;;2.20;99.90;;;;;;4990509;28;20057;-59
2020/12/29 07:57:32;;;;;;;14.23;6.28;;;2.30;99.90;;;;;;5008079;28;20433;-59
2020/12/29 08:00:09;;;;;;;15.98;6.53;;;2.30;99.90;;;;;;5010358;28;20060;-58
2020/12/29 08:02:35;;;;;;;12.50;6.00;;;2.40;99.90;;;;;;4993813;28;20448;-59
2020/12/29 08:05:01;;;;;;;11.65;6.15;;;2.50;99.90;;;;;;4991081;28;20105;-57
2020/12/29 08:07:26;;;;;;;11.15;6.38;;;2.50;99.90;;;;;;4990995;28;20041;-57
2020/12/29 08:09:52;;;;;;;10.05;5.60;;;2.50;99.90;;;;;;4991325;28;20552;-58
2020/12/29 08:12:18;;;;;;;8.75;5.70;;;2.60;99.90;;;;;;5007270;28;20559;-59
2020/12/29 08:14:44;;;;;;;12.77;6.38;;;2.60;99.90;;;;;;5009101;28;20048;-58
2020/12/29 08:17:10;;;;;;;12.50;5.70;;;2.70;99.90;;;;;;5010438;28;20549;-59
2020/12/29 08:19:36;;;;;;;11.80;5.40;;;2.70;99.90;;;;;;5010946;28;20069;-59
2020/12/29 08:22:09;;;;;;;11.50;6.47;;;2.80;99.90;;;;;;4994908;28;20560;-58
2020/12/29 08:24:35;;;;;;;13.23;6.63;;;2.80;99.90;;;;;;4990418;28;20041;-57
2020/12/29 08:27:01;;;;;;;12.82;6.03;;;2.90;99.90;;;;;;5004737;28;20613;-56
2020/12/29 08:29:28;;;;;;;11.25;6.07;;;2.80;99.90;;;;;;5009814;28;20037;-56
2020/12/29 08:32:05;;;;;;;9.38;5.82;;;2.90;99.90;;;;;;4997073;28;20066;-58
2020/12/29 08:34:33;;;;;;;18.63;6.20;;;2.90;99.90;;;;;;4990201;28;20030;-56
2020/12/29 08:37:00;;;;;;;9.52;5.97;;;3.00;99.90;;;;;;4990189;28;20102;-55
2020/12/29 08:39:50;;;;;;;11.15;5.75;;;3.10;99.90;;;;;;4990150;28;20034;-56
2020/12/29 08:42:18;;;;;;;14.85;5.80;;;3.10;99.90;;;;;;5006270;28;20396;-58
2020/12/29 08:44:45;;;;;;;14.82;6.50;;;3.10;99.90;;;;;;4999897;28;20477;-58
2020/12/29 08:47:12;;;;;;;14.07;6.88;;;3.10;99.90;;;;;;4990048;28;20030;-56
2020/12/29 08:49:38;;;;;;;10.10;5.43;;;3.10;99.90;;;;;;4990053;28;20023;-58
2020/12/29 08:52:04;;;;;;;14.05;7.38;;;3.20;99.90;;;;;;4989757;28;20065;-57
2020/12/29 08:54:38;;;;;;;15.70;6.72;;;3.20;99.90;;;;;;4997084;28;20029;-56
2020/12/29 08:57:06;;;;;;;14.45;7.00;;;3.30;99.90;;;;;;5010319;28;20418;-57
2020/12/29 08:59:37;;;;;;;14.98;6.63;;;3.30;99.90;;;;;;5010658;28;20485;-58
2020/12/29 09:02:03;;;;;;;10.20;6.57;;;3.40;99.90;;;;;;5009420;28;20061;-56
2020/12/29 09:04:42;;;;;;;20.77;8.10;;;3.40;99.90;;;;;;5002630;28;20105;-58
2020/12/29 09:07:12;;;;;;;15.90;7.72;;;3.50;99.90;;;;;;4992712;28;20389;-56
2020/12/29 09:10:01;;;;;;;17.58;7.80;;;3.50;99.90;;;;;;5009142;28;20570;-57
2020/12/29 09:12:31;;;;;;;16.90;8.18;;;3.60;99.90;;;;;;4991167;28;20026;-56
2020/12/29 09:15:04;;;;;;;19.38;8.10;;;3.70;99.90;;;;;;4989068;28;20053;-57
2020/12/29 09:17:37;;;;;;;11.73;7.68;;;3.60;99.90;;;;;;4989747;28;20030;-56
2020/12/29 09:20:23;;;;;;;20.35;8.68;;;3.70;99.90;;;;;;4989540;28;20563;-56
2020/12/29 09:23:12;;;;;;;20.55;8.50;;;3.70;99.90;;;;;;4988836;28;20030;-58
2020/12/29 09:25:39;;;;;;;19.13;7.32;;;3.70;99.90;;;;;;4990563;28;20030;-58
2020/12/29 09:28:26;;;;;;;13.55;7.38;;;3.70;99.90;;;;;;5002280;28;20018;-58
2020/12/29 09:30:58;;;;;;;18.02;7.72;;;3.80;99.90;;;;;;4989802;28;20473;-58
2020/12/29 09:33:25;;;;;;;25.70;7.88;;;3.70;99.90;;;;;;4989773;28;20025;-58
2020/12/29 09:35:51;;;;;;;19.30;9.32;;;3.70;99.90;;;;;;4991352;28;20069;-58
2020/12/29 09:38:17;;;;;;;14.85;7.55;;;3.70;99.90;;;;;;5006651;28;20481;-58
2020/12/29 09:40:45;;;;;;;18.20;8.38;;;3.80;99.90;;;;;;5005029;28;20049;-59
2020/12/29 09:43:11;;;;;;;22.05;8.48;;;3.90;99.90;;;;;;4989271;28;20060;-58
2020/12/29 09:45:37;;;;;;;15.80;8.30;;;4.00;99.90;;;;;;4989318;28;20026;-56
2020/12/29 09:48:02;;;;;;;12.10;8.10;;;4.10;99.90;;;;;;5009132;28;20374;-56
2020/12/29 09:50:28;;;;;;;14.65;6.55;;;4.10;99.90;;;;;;5008894;28;20029;-58
2020/12/29 09:52:53;;;;;;;9.60;6.03;;;4.20;99.90;;;;;;5008479;28;20034;-56
2020/12/29 09:55:19;;;;;;;16.67;6.65;;;4.20;99.90;;;;;;5007978;28;20549;-58
2020/12/29 09:57:44;;;;;;;11.30;5.47;;;4.30;99.90;;;;;;4989405;28;20031;-56
2020/12/29 10:00:10;;;;;;;12.80;5.35;;;4.30;99.90;;;;;;4989255;28;20108;-58
2020/12/29 10:02:36;;;;;;;11.93;6.28;;;4.30;99.90;;;;;;4988985;28;20041;-58
2020/12/29 10:05:01;;;;;;;13.45;6.07;;;4.30;99.90;;;;;;4988940;28;20038;-58
2020/12/29 10:07:27;;;;;;;14.07;7.18;;;4.40;99.90;;;;;;4990457;28;20030;-56
2020/12/29 10:09:52;;;;;;;11.43;5.40;;;4.40;99.90;;;;;;4989327;28;20034;-57
2020/12/29 10:12:19;;;;;;;12.00;5.80;;;4.30;99.90;;;;;;5007315;28;20190;-58
2020/12/29 10:14:45;;;;;;;16.52;6.28;;;4.30;99.90;;;;;;5012787;28;20088;-58
2020/12/29 10:17:10;;;;;;;11.05;6.57;;;4.30;99.90;;;;;;4999743;28;20042;-57
2020/12/29 10:19:36;;;;;;;8.80;5.75;;;4.40;99.90;;;;;;4992592;28;20036;-58
2020/12/29 10:22:02;;;;;;;10.73;6.20;;;4.40;99.90;;;;;;4992660;28;20034;-59
2020/12/29 10:24:29;;;;;;;11.63;5.78;;;4.40;99.90;;;;;;4992686;28;20033;-56
2020/12/29 10:26:56;;;;;;;14.32;6.60;;;4.40;99.90;;;;;;5006260;28;20062;-58
2020/12/29 10:29:22;;;;;;;14.50;6.05;;;4.50;99.90;;;;;;5012044;28;20026;-56
2020/12/29 10:31:47;;;;;;;13.32;6.50;;;4.50;99.90;;;;;;5012114;28;20209;-57
2020/12/29 10:34:14;;;;;;;15.05;7.97;;;4.60;99.90;;;;;;5006964;28;20133;-57
2020/12/29 10:36:40;;;;;;;16.27;9.85;;;4.70;99.90;;;;;;4992687;28;20037;-57
2020/12/29 10:39:08;;;;;;;16.85;8.93;;;4.70;99.90;;;;;;4992800;28;20053;-56
2020/12/29 10:41:35;;;;;;;17.98;9.10;;;4.80;99.90;;;;;;4994736;28;20039;-56
2020/12/29 10:44:01;;;;;;;18.38;9.50;;;4.90;99.90;;;;;;4995677;28;20032;-57
2020/12/29 10:46:27;;;;;;;19.15;9.75;;;4.90;99.90;;;;;;5012591;28;20022;-57
2020/12/29 10:48:52;;;;;;;17.52;9.52;;;5.00;99.90;;;;;;5013081;28;20041;-57
2020/12/29 10:51:19;;;;;;;24.92;8.43;;;5.00;99.90;;;;;;5010733;28;20034;-59
2020/12/29 10:53:45;;;;;;;18.83;10.15;;;5.00;99.90;;;;;;5006605;28;20700;-56
2020/12/29 10:56:11;;;;;;;24.67;10.02;;;5.10;99.90;;;;;;4998570;28;20675;-57
2020/12/29 10:58:38;;;;;;;20.38;10.68;;;5.20;99.90;;;;;;4994305;28;20073;-56
2020/12/29 11:01:04;;;;;;;20.92;11.68;;;5.20;99.90;;;;;;5011735;28;20057;-58
2020/12/29 11:03:30;;;;;;;19.60;11.50;;;5.30;99.90;;;;;;5004715;28;20023;-57
2020/12/29 11:05:55;;;;;;;22.70;12.13;;;5.30;99.90;;;;;;4992135;28;20034;-55
2020/12/29 11:08:21;;;;;;;25.88;14.27;;;5.30;99.90;;;;;;4992131;28;20026;-56
2020/12/29 11:10:49;;;;;;;24.95;14.20;;;5.30;99.90;;;;;;5004213;28;20687;-56
2020/12/29 11:13:15;;;;;;;25.30;13.35;;;5.40;99.90;;;;;;5011361;28;20030;-55
2020/12/29 11:15:40;;;;;;;22.50;13.57;;;5.40;99.90;;;;;;5010153;28;20083;-56
2020/12/29 11:18:06;;;;;;;21.33;12.63;;;5.40;99.90;;;;;;5011602;28;20069;-56
2020/12/29 11:20:31;;;;;;;22.83;12.75;;;5.40;99.90;;;;;;5001599;28;20034;-56
2020/12/29 11:22:57;;;;;;;19.05;10.02;;;5.50;99.90;;;;;;4990923;28;20034;-55
2020/12/29 11:25:22;;;;;;;16.45;10.45;;;5.50;99.90;;;;;;4991267;28;20031;-57
2020/12/29 11:27:48;;;;;;;17.83;9.93;;;5.60;99.90;;;;;;5011769;28;20037;-56
2020/12/29 11:30:13;;;;;;;19.58;10.77;;;5.60;99.90;;;;;;5005120;28;20022;-58
2020/12/29 11:32:39;;;;;;;19.50;11.52;;;5.70;99.90;;;;;;5009660;28;20076;-57
2020/12/29 11:35:04;;;;;;;22.75;11.38;;;5.70;99.90;;;;;;5010970;28;20028;-56
2020/12/29 11:37:30;;;;;;;18.38;11.23;;;5.80;99.90;;;;;;5010984;28;20109;-56
2020/12/29 11:39:56;;;;;;;21.67;11.48;;;5.80;99.90;;;;;;5007911;28;20022;-55
2020/12/29 11:42:22;;;;;;;20.92;11.18;;;5.90;99.90;;;;;;4993238;28;20038;-58
2020/12/29 11:44:47;;;;;;;19.88;11.93;;;6.10;99.90;;;;;;4991181;28;20022;-55
2020/12/29 11:47:13;;;;;;;19.85;10.55;;;6.20;99.90;;;;;;4991358;28;20029;-58
2020/12/29 11:49:38;;;;;;;22.00;10.65;;;6.20;99.90;;;;;;4991488;28;20113;-57
2020/12/29 11:52:04;;;;;;;20.63;10.43;;;6.20;99.90;;;;;;5004715;28;20053;-56
2020/12/29 11:54:29;;;;;;;19.48;10.18;;;6.30;99.90;;;;;;5003602;28;20034;-57
2020/12/29 11:56:55;;;;;;;19.33;11.05;;;6.40;99.90;;;;;;4991246;28;20366;-56
2020/12/29 11:59:20;;;;;;;20.70;9.98;;;6.30;99.90;;;;;;4990649;28;20050;-57
2020/12/29 12:01:46;;;;;;;17.55;10.02;;;6.30;99.90;;;;;;5001867;28;20038;-58
2020/12/29 12:04:11;;;;;;;19.90;9.43;;;6.30;99.90;;;;;;5010570;28;20021;-58
2020/12/29 12:06:37;;;;;;;15.77;8.88;;;6.40;99.90;;;;;;5008465;28;20029;-58
2020/12/29 12:09:04;;;;;;;14.02;8.75;;;6.50;99.90;;;;;;4991030;28;20490;-58
2020/12/29 12:11:30;;;;;;;16.60;8.90;;;6.60;99.90;;;;;;5000916;28;20034;-56
2020/12/29 12:13:56;;;;;;;17.67;8.18;;;6.50;99.90;;;;;;4993752;28;20049;-57
2020/12/29 12:16:23;;;;;;;11.23;6.65;;;6.50;99.90;;;;;;4990677;28;20093;-58
2020/12/29 12:18:48;;;;;;;14.48;6.78;;;6.40;99.90;;;;;;5001930;28;20378;-57
2020/12/29 12:21:14;;;;;;;13.35;6.47;;;6.40;99.90;;;;;;5010189;28;20030;-55
2020/12/29 12:23:40;;;;;;;15.75;7.00;;;6.40;99.90;;;;;;5010306;28;20037;-58
2020/12/29 12:26:05;;;;;;;15.35;6.90;;;6.40;99.90;;;;;;5002166;28;20037;-56
2020/12/29 12:28:31;;;;;;;13.93;7.30;;;6.30;99.90;;;;;;4990604;28;20023;-59
2020/12/29 12:30:57;;;;;;;17.88;7.95;;;6.30;99.90;;;;;;4990053;28;20026;-58
2020/12/29 12:33:22;;;;;;;13.38;7.13;;;6.20;99.90;;;;;;4990809;28;20030;-57
2020/12/29 12:35:48;;;;;;;15.88;7.30;;;6.20;99.90;;;;;;4993869;28;20034;-58
2020/12/29 12:38:13;;;;;;;12.73;7.10;;;6.10;99.90;;;;;;5010237;28;20056;-56
2020/12/29 12:40:39;;;;;;;11.23;6.32;;;6.10;99.90;;;;;;5006864;28;20355;-59
2020/12/29 12:43:04;;;;;;;12.55;5.53;;;6.20;99.90;;;;;;4990091;28;20105;-58
2020/12/29 12:45:30;;;;;;;9.35;5.47;;;6.30;99.90;;;;;;4991181;28;20064;-58
2020/12/29 12:47:56;;;;;;;9.45;5.63;;;6.50;99.90;;;;;;5009899;28;20021;-58